createdAt,value
2018-07-17T00:01:37.539Z,61.80
2018-07-17T00:04:12.542Z,61.50
2018-07-17T00:06:47.736Z,61.70
2018-07-17T00:09:22.571Z,60.80
2018-07-17T00:11:57.419Z,60.70
2018-07-17T00:14:32.157Z,61.20
2018-07-17T00:17:07.478Z,62.10
2018-07-17T00:19:42.301Z,60.00
2018-07-17T00:22:17.565Z,60.30
2018-07-17T00:24:52.448Z,59.80
2018-07-17T00:27:27.365Z,60.80
2018-07-17T00:30:02.797Z,60.90
2018-07-17T00:32:37.896Z,61.30
2018-07-17T00:35:13.196Z,61.60
2018-07-17T00:37:48.399Z,61.60
2018-07-17T00:42:58.033Z,62.10
2018-07-17T00:45:32.947Z,62.30
2018-07-17T00:48:08.590Z,62.30
2018-07-17T00:50:43.787Z,62.70
2018-07-17T00:53:18.592Z,63.10
2018-07-17T00:55:54.262Z,63.70
2018-07-17T00:58:29.510Z,63.90
2018-07-17T01:01:03.582Z,63.90
2018-07-17T01:03:44.710Z,63.50
2018-07-17T01:09:04.905Z,63.10
2018-07-17T01:11:45.210Z,62.30
2018-07-17T01:14:33.067Z,62.70
2018-07-17T01:17:08.379Z,63.10
2018-07-17T01:19:43.243Z,63.60
2018-07-17T01:22:19.168Z,63.70
2018-07-17T01:24:54.008Z,63.90
2018-07-17T01:27:28.760Z,64.70
2018-07-17T01:30:04.296Z,65.30
2018-07-17T01:32:39.339Z,65.80
2018-07-17T01:35:14.441Z,66.90
2018-07-17T01:37:50.818Z,67.10
2018-07-17T01:40:26.178Z,67.50
2018-07-17T01:43:01.397Z,67.60
2018-07-17T01:45:36.866Z,67.50
2018-07-17T01:48:12.302Z,67.20
2018-07-17T01:50:47.811Z,68.00
2018-07-17T01:53:22.812Z,67.30
2018-07-17T01:55:57.919Z,67.60
2018-07-17T01:58:32.966Z,67.70
2018-07-17T02:01:08.203Z,68.20
2018-07-17T02:03:44.136Z,68.20
2018-07-17T02:06:19.178Z,68.70
2018-07-17T02:11:28.991Z,69.00
2018-07-17T02:14:04.390Z,69.00
2018-07-17T02:16:39.450Z,69.60
2018-07-17T02:19:14.608Z,69.70
2018-07-17T02:21:50.335Z,69.70
2018-07-17T02:24:25.634Z,70.10
2018-07-17T02:27:00.906Z,70.10
2018-07-17T02:29:35.638Z,70.30
2018-07-17T02:32:10.934Z,70.20
2018-07-17T02:34:46.181Z,70.10
2018-07-17T02:39:56.373Z,71.00
2018-07-17T02:42:31.130Z,71.80
2018-07-17T02:45:06.535Z,72.00
2018-07-17T02:47:41.601Z,71.80
2018-07-17T02:52:51.543Z,72.40
2018-07-17T02:55:26.454Z,73.00
2018-07-17T02:58:02.123Z,73.20
2018-07-17T03:00:37.222Z,72.80
2018-07-17T03:03:12.888Z,73.30
2018-07-17T03:05:47.951Z,73.40
2018-07-17T03:08:22.978Z,73.60
2018-07-17T03:10:58.241Z,73.80
2018-07-17T03:13:33.850Z,74.10
2018-07-17T03:16:09.315Z,74.30
2018-07-17T03:18:44.244Z,74.00
2018-07-17T03:21:19.222Z,73.50
2018-07-17T03:23:54.357Z,73.50
2018-07-17T03:26:29.334Z,74.10
2018-07-17T03:29:04.886Z,74.10
2018-07-17T03:31:39.852Z,73.30
2018-07-17T03:34:15.709Z,72.80
2018-07-17T03:36:51.675Z,73.50
2018-07-17T03:39:26.779Z,75.00
2018-07-17T03:42:02.262Z,76.80
2018-07-17T03:44:37.377Z,77.80
2018-07-17T03:47:12.896Z,78.00
2018-07-17T03:49:47.902Z,78.10
2018-07-17T03:52:22.919Z,78.70
2018-07-17T03:54:57.783Z,77.60
2018-07-17T03:57:32.716Z,77.50
2018-07-17T04:00:08.385Z,77.70
2018-07-17T04:02:43.482Z,77.80
2018-07-17T04:05:19.288Z,77.90
2018-07-17T04:07:54.372Z,78.20
2018-07-17T04:10:29.552Z,78.20
2018-07-17T04:13:05.020Z,78.30
2018-07-17T04:15:40.227Z,78.20
2018-07-17T04:18:15.893Z,78.60
2018-07-17T04:20:51.056Z,79.60
2018-07-17T04:23:25.918Z,80.60
2018-07-17T04:26:00.980Z,81.70
2018-07-17T04:31:11.513Z,82.90
2018-07-17T04:33:46.691Z,81.90
2018-07-17T04:36:21.475Z,83.50
2018-07-17T04:38:56.831Z,82.60
2018-07-17T04:41:32.361Z,82.60
2018-07-17T04:44:07.659Z,82.60
2018-07-17T04:46:43.107Z,83.40
2018-07-17T04:49:18.501Z,83.60
2018-07-17T04:51:53.809Z,83.80
2018-07-17T04:54:29.932Z,84.70
2018-07-17T04:57:05.696Z,84.60
2018-07-17T04:59:40.914Z,85.10
2018-07-17T05:02:16.088Z,85.80
2018-07-17T05:04:51.097Z,85.70
2018-07-17T05:07:26.468Z,85.80
2018-07-17T05:10:02.679Z,85.90
2018-07-17T05:12:37.942Z,86.30
2018-07-17T05:15:13.124Z,86.50
2018-07-17T05:17:48.424Z,86.70
2018-07-17T05:20:24.391Z,86.50
2018-07-17T05:22:59.834Z,86.80
2018-07-17T05:28:10.382Z,87.30
2018-07-17T05:30:45.820Z,87.90
2018-07-17T05:33:21.951Z,88.10
2018-07-17T05:35:57.277Z,88.20
2018-07-17T05:38:33.766Z,88.80
2018-07-17T05:41:09.165Z,89.10
2018-07-17T05:43:44.102Z,89.40
2018-07-17T05:46:19.273Z,89.90
2018-07-17T05:48:54.698Z,89.80
2018-07-17T05:51:30.050Z,90.10
2018-07-17T05:54:05.166Z,90.10
2018-07-17T05:56:40.130Z,90.10
2018-07-17T05:59:15.783Z,90.20
2018-07-17T06:01:51.006Z,90.70
2018-07-17T06:04:27.841Z,90.70
2018-07-17T06:07:03.269Z,90.60
2018-07-17T06:09:38.311Z,90.40
2018-07-17T06:12:13.608Z,90.30
2018-07-17T06:14:48.673Z,89.60
2018-07-17T06:17:23.974Z,89.60
2018-07-17T06:19:59.483Z,89.20
2018-07-17T06:22:35.140Z,88.70
2018-07-17T06:25:10.873Z,88.30
2018-07-17T06:27:45.798Z,88.30
2018-07-17T06:30:21.148Z,88.80
2018-07-17T06:32:56.672Z,88.30
2018-07-17T06:35:32.290Z,88.40
2018-07-17T06:38:08.220Z,88.70
2018-07-17T06:40:43.269Z,88.90
2018-07-17T06:43:19.519Z,89.20
2018-07-17T06:45:55.017Z,88.80
2018-07-17T06:48:30.398Z,89.20
2018-07-17T06:51:05.646Z,88.40
2018-07-17T06:56:15.727Z,87.60
2018-07-17T06:58:50.736Z,87.70
2018-07-17T07:01:26.016Z,87.40
2018-07-17T07:04:01.318Z,88.50
2018-07-17T07:06:36.189Z,89.60
2018-07-17T07:09:11.634Z,90.00
2018-07-17T07:11:46.864Z,90.00
2018-07-17T07:16:56.782Z,87.50
2018-07-17T07:22:13.217Z,85.90
2018-07-17T07:24:48.392Z,86.70
2018-07-17T07:27:23.353Z,86.30
2018-07-17T07:29:58.315Z,85.30
2018-07-17T07:32:33.548Z,85.60
2018-07-17T07:35:08.843Z,85.50
2018-07-17T07:37:45.477Z,85.30
2018-07-17T07:40:20.879Z,84.70
2018-07-17T07:42:55.981Z,84.70
2018-07-17T07:45:30.948Z,84.40
2018-07-17T07:48:06.145Z,84.50
2018-07-17T07:50:41.446Z,85.60
2018-07-17T07:53:16.968Z,84.90
2018-07-17T07:55:52.601Z,85.30
2018-07-17T07:58:28.064Z,85.60
2018-07-17T08:01:03.503Z,86.30
2018-07-17T08:06:14.371Z,85.60
2018-07-17T08:08:49.315Z,85.70
2018-07-17T08:11:24.492Z,85.70
2018-07-17T08:13:59.579Z,85.30
2018-07-17T08:16:34.676Z,85.40
2018-07-17T08:19:09.653Z,85.60
2018-07-17T08:21:45.292Z,84.60
2018-07-17T08:24:21.461Z,83.80
2018-07-17T08:26:56.859Z,82.70
2018-07-17T08:29:32.270Z,83.30
2018-07-17T08:32:07.651Z,82.20
2018-07-17T08:34:42.872Z,81.50
2018-07-17T08:37:18.422Z,82.20
2018-07-17T08:39:53.716Z,82.10
2018-07-17T08:42:28.912Z,81.70
2018-07-17T08:45:04.062Z,80.70
2018-07-17T08:47:39.030Z,80.40
2018-07-17T08:50:14.009Z,80.00
2018-07-17T08:52:49.726Z,79.60
2018-07-17T08:55:24.561Z,79.50
2018-07-17T08:58:00.354Z,78.60
2018-07-17T09:00:35.685Z,76.80
2018-07-17T09:03:10.856Z,77.00
2018-07-17T09:05:45.987Z,77.20
2018-07-17T09:08:21.314Z,76.20
2018-07-17T09:10:56.297Z,76.10
2018-07-17T09:13:31.767Z,74.90
2018-07-17T09:16:06.736Z,74.30
2018-07-17T09:18:41.977Z,72.70
2018-07-17T09:21:16.949Z,71.20
2018-07-17T09:23:52.001Z,70.50
2018-07-17T09:26:27.595Z,70.30
2018-07-17T09:29:03.172Z,70.30
2018-07-17T09:31:38.604Z,70.30
2018-07-17T09:34:13.937Z,70.00
2018-07-17T09:36:49.399Z,69.80
2018-07-17T09:39:24.496Z,69.70
2018-07-17T09:41:59.504Z,69.80
2018-07-17T09:44:34.593Z,69.80
2018-07-17T09:47:09.756Z,68.70
2018-07-17T09:49:44.599Z,67.70
2018-07-17T09:52:19.830Z,66.10
2018-07-17T09:54:55.202Z,66.00
2018-07-17T09:57:30.404Z,65.80
2018-07-17T10:00:05.357Z,65.60
2018-07-17T10:02:40.471Z,65.40
2018-07-17T10:05:15.927Z,65.40
2018-07-17T10:07:50.843Z,65.20
2018-07-17T10:10:26.041Z,64.90
2018-07-17T10:13:01.010Z,63.30
2018-07-17T10:15:36.547Z,62.90
2018-07-17T10:18:12.158Z,62.30
2018-07-17T10:20:48.199Z,63.50
2018-07-17T10:23:23.208Z,62.30
2018-07-17T10:25:58.168Z,62.90
2018-07-17T10:28:33.163Z,62.30
2018-07-17T10:31:08.066Z,62.50
2018-07-17T10:33:43.453Z,61.90
2018-07-17T10:38:53.438Z,61.00
2018-07-17T10:41:28.545Z,60.50
2018-07-17T10:44:03.573Z,59.20
2018-07-17T10:46:39.195Z,59.60
2018-07-17T10:49:14.818Z,58.80
2018-07-17T10:51:49.787Z,59.10
2018-07-17T10:54:25.041Z,58.80
2018-07-17T10:57:00.576Z,59.30
2018-07-17T10:59:35.520Z,60.00
2018-07-17T11:02:10.593Z,58.80
2018-07-17T11:04:45.631Z,57.20
2018-07-17T11:07:21.277Z,58.20
2018-07-17T11:09:56.926Z,57.30
2018-07-17T11:12:32.327Z,57.30
2018-07-17T11:15:07.742Z,57.00
2018-07-17T11:17:43.574Z,56.90
2018-07-17T11:20:18.641Z,56.60
2018-07-17T11:22:53.755Z,56.70
2018-07-17T11:25:28.681Z,56.50
2018-07-17T11:28:03.786Z,56.90
2018-07-17T11:30:38.861Z,56.10
2018-07-17T11:33:13.933Z,55.80
2018-07-17T11:35:49.102Z,56.20
2018-07-17T11:38:24.265Z,54.90
2018-07-17T11:40:59.067Z,55.00
2018-07-17T11:43:34.162Z,55.10
2018-07-17T11:46:09.078Z,54.90
2018-07-17T11:48:43.976Z,55.30
2018-07-17T11:51:19.474Z,54.70
2018-07-17T11:53:54.568Z,55.40
2018-07-17T11:56:29.709Z,54.70
2018-07-17T12:01:46.340Z,55.90
2018-07-17T12:04:21.338Z,55.40
2018-07-17T12:06:56.179Z,56.00
2018-07-17T12:09:31.714Z,55.70
2018-07-17T12:12:07.370Z,55.40
2018-07-17T12:14:42.391Z,55.60
2018-07-17T12:17:17.963Z,55.20
2018-07-17T12:19:53.440Z,54.60
2018-07-17T12:22:28.341Z,55.00
2018-07-17T12:25:03.404Z,54.80
2018-07-17T12:27:38.257Z,55.10
2018-07-17T12:30:13.546Z,55.00
2018-07-17T12:32:48.894Z,54.60
2018-07-17T12:35:23.863Z,54.80
2018-07-17T12:37:59.146Z,55.00
2018-07-17T12:40:34.353Z,54.80
2018-07-17T12:45:44.762Z,54.30
2018-07-17T12:48:19.781Z,53.90
2018-07-17T12:50:54.874Z,54.20
2018-07-17T12:53:30.268Z,53.80
2018-07-17T12:56:05.646Z,53.80
2018-07-17T12:58:41.286Z,53.30
2018-07-17T13:01:16.748Z,53.20
2018-07-17T13:03:51.739Z,53.50
2018-07-17T13:06:27.740Z,53.70
2018-07-17T13:09:03.138Z,53.30
2018-07-17T13:11:38.270Z,53.60
2018-07-17T13:14:13.575Z,52.70
2018-07-17T13:16:48.366Z,52.80
2018-07-17T13:19:23.456Z,52.60
2018-07-17T13:21:58.435Z,52.60
2018-07-17T13:24:34.255Z,53.00
2018-07-17T13:27:10.097Z,52.90
2018-07-17T13:29:45.366Z,52.50
2018-07-17T13:32:20.736Z,52.30
2018-07-17T13:34:55.890Z,52.40
2018-07-17T13:37:31.140Z,52.50
2018-07-17T13:40:06.416Z,52.70
2018-07-17T13:42:42.678Z,51.00
2018-07-17T13:45:17.984Z,51.30
2018-07-17T13:47:53.311Z,51.50
2018-07-17T13:50:28.183Z,52.20
2018-07-17T13:53:04.230Z,51.60
2018-07-17T13:55:39.666Z,51.90
2018-07-17T13:58:14.826Z,51.80
2018-07-17T14:00:50.388Z,51.70
2018-07-17T14:03:25.588Z,52.10
2018-07-17T14:06:00.769Z,51.80
2018-07-17T14:08:36.095Z,52.00
2018-07-17T14:11:11.282Z,51.70
2018-07-17T14:13:46.488Z,51.50
2018-07-17T14:16:21.862Z,52.20
2018-07-17T14:18:57.223Z,52.20
2018-07-17T14:21:32.331Z,52.50
2018-07-17T14:24:07.930Z,52.20
2018-07-17T14:26:43.062Z,51.00
2018-07-17T14:29:18.322Z,51.00
2018-07-17T14:31:53.169Z,51.60
2018-07-17T14:34:28.390Z,51.90
2018-07-17T14:37:03.780Z,52.90
2018-07-17T14:39:39.010Z,52.30
2018-07-17T14:42:14.336Z,52.40
2018-07-17T14:44:49.541Z,51.70
2018-07-17T14:47:26.024Z,51.50
2018-07-17T14:50:00.815Z,50.90
2018-07-17T14:52:36.298Z,50.60
2018-07-17T14:55:12.417Z,50.40
2018-07-17T14:57:47.495Z,51.30
2018-07-17T15:00:22.316Z,51.50
2018-07-17T15:02:57.382Z,51.70
2018-07-17T15:05:32.332Z,51.80
2018-07-17T15:08:07.349Z,52.00
2018-07-17T15:10:42.501Z,52.40
2018-07-17T15:13:18.123Z,52.30
2018-07-17T15:18:28.418Z,52.70
2018-07-17T15:21:03.929Z,52.80
2018-07-17T15:23:41.768Z,53.20
2018-07-17T15:26:16.829Z,53.30
2018-07-17T15:28:51.857Z,54.20
2018-07-17T15:31:27.064Z,53.90
2018-07-17T15:36:36.566Z,54.40
2018-07-17T15:39:12.563Z,54.40
2018-07-17T15:41:47.468Z,54.50
2018-07-17T15:46:57.418Z,54.60
2018-07-17T15:49:32.882Z,55.10
2018-07-17T15:52:07.839Z,55.00
2018-07-17T15:54:43.088Z,54.80
2018-07-17T15:57:18.235Z,54.70
2018-07-17T15:59:53.373Z,54.50
2018-07-17T16:02:29.104Z,54.50
2018-07-17T16:05:04.155Z,54.30
2018-07-17T16:07:39.149Z,54.00
2018-07-17T16:12:48.746Z,54.80
2018-07-17T16:15:23.989Z,54.20
2018-07-17T16:17:59.139Z,53.80
2018-07-17T16:20:34.200Z,54.60
2018-07-17T16:23:09.363Z,54.20
2018-07-17T16:25:44.475Z,54.00
2018-07-17T16:28:19.529Z,54.20
2018-07-17T16:30:54.546Z,54.00
2018-07-17T16:33:29.764Z,53.60
2018-07-17T16:36:06.159Z,53.90
2018-07-17T16:38:40.964Z,54.50
2018-07-17T16:41:15.969Z,54.70
2018-07-17T16:43:51.414Z,54.90
2018-07-17T16:46:27.057Z,55.20
2018-07-17T16:49:02.754Z,55.30
2018-07-17T16:51:37.805Z,55.30
2018-07-17T16:54:13.328Z,54.80
2018-07-17T16:56:48.927Z,55.00
2018-07-17T16:59:24.114Z,55.10
2018-07-17T17:01:59.528Z,55.10
2018-07-17T17:04:34.376Z,54.80
2018-07-17T17:07:09.808Z,54.70
2018-07-17T17:09:45.007Z,55.00
2018-07-17T17:12:19.976Z,55.10
2018-07-17T17:14:55.365Z,54.90
2018-07-17T17:17:30.721Z,55.10
2018-07-17T17:20:05.994Z,54.90
2018-07-17T17:22:41.074Z,55.40
2018-07-17T17:25:16.075Z,54.70
2018-07-17T17:27:51.515Z,55.00
2018-07-17T17:30:26.535Z,54.90
2018-07-17T17:33:02.043Z,55.00
2018-07-17T17:35:37.011Z,55.10
2018-07-17T17:38:12.187Z,55.00
2018-07-17T17:40:47.141Z,55.10
2018-07-17T17:43:22.390Z,55.40
2018-07-17T17:45:58.082Z,55.20
2018-07-17T17:48:33.244Z,55.10
2018-07-17T17:51:08.778Z,54.60
2018-07-17T17:53:44.252Z,54.50
2018-07-17T17:56:21.066Z,54.70
2018-07-17T17:58:56.674Z,54.60
2018-07-17T18:01:34.076Z,54.60
2018-07-17T18:04:09.625Z,54.00
2018-07-17T18:06:44.465Z,53.80
2018-07-17T18:09:19.616Z,53.70
2018-07-17T18:11:55.058Z,54.10
2018-07-17T18:14:31.465Z,54.70
2018-07-17T18:17:07.821Z,56.10
2018-07-17T18:19:43.479Z,57.40
2018-07-17T18:22:18.799Z,58.10
2018-07-17T18:24:54.332Z,58.60
2018-07-17T18:27:29.976Z,59.10
2018-07-17T18:30:05.718Z,59.80
2018-07-17T18:32:41.042Z,60.80
2018-07-17T18:35:19.530Z,61.40
2018-07-17T18:37:54.624Z,61.80
2018-07-17T18:40:29.916Z,62.10
2018-07-17T18:43:05.094Z,62.30
2018-07-17T18:48:14.977Z,61.60
2018-07-17T18:50:50.513Z,61.10
2018-07-17T18:53:26.090Z,61.40
2018-07-17T18:56:01.585Z,61.60
2018-07-17T18:58:37.252Z,61.70
2018-07-17T19:01:13.130Z,61.90
2018-07-17T19:03:48.247Z,61.90
2018-07-17T19:06:23.719Z,61.20
2018-07-17T19:08:58.648Z,62.00
2018-07-17T19:11:34.125Z,61.80
2018-07-17T19:14:09.685Z,61.80
2018-07-17T19:16:44.894Z,61.40
2018-07-17T19:19:20.547Z,61.30
2018-07-17T19:21:55.657Z,61.60
2018-07-17T19:24:30.906Z,61.40
2018-07-17T19:27:06.232Z,61.50
2018-07-17T19:29:41.792Z,61.60
2018-07-17T19:32:16.706Z,62.10
2018-07-17T19:34:51.837Z,61.80
2018-07-17T19:37:27.092Z,62.20
2018-07-17T19:40:02.019Z,62.40
2018-07-17T19:42:37.488Z,62.70
2018-07-17T19:45:12.363Z,62.90
2018-07-17T19:47:47.860Z,62.60
2018-07-17T19:50:22.944Z,62.70
2018-07-17T19:52:58.267Z,62.90
2018-07-17T19:55:33.710Z,63.10
2018-07-17T19:58:09.232Z,63.00
2018-07-17T20:00:44.326Z,63.10
2018-07-17T20:03:19.737Z,63.20
2018-07-17T20:05:55.070Z,63.50
2018-07-17T20:08:29.956Z,63.80
2018-07-17T20:11:04.995Z,63.40
2018-07-17T20:13:40.321Z,63.00
2018-07-17T20:16:15.298Z,61.90
2018-07-17T20:18:50.476Z,60.80
2018-07-17T20:21:26.163Z,59.50
2018-07-17T20:24:01.540Z,59.20
2018-07-17T20:26:37.136Z,59.10
2018-07-17T20:29:13.731Z,58.50
2018-07-17T20:31:48.824Z,58.00
2018-07-17T20:34:23.927Z,57.70
2018-07-17T20:36:59.162Z,57.50
2018-07-17T20:39:34.425Z,57.60
2018-07-17T20:42:09.512Z,57.70
2018-07-17T20:44:44.589Z,57.80
2018-07-17T20:47:19.811Z,57.90
2018-07-17T20:49:55.093Z,57.70
2018-07-17T20:52:30.745Z,58.00
2018-07-17T20:55:05.870Z,58.30
2018-07-17T20:57:41.040Z,58.80
2018-07-17T21:00:16.077Z,58.90
2018-07-17T21:02:51.476Z,59.00
2018-07-17T21:05:26.611Z,59.40
2018-07-17T21:08:01.604Z,59.70
2018-07-17T21:10:36.591Z,60.10
2018-07-17T21:13:11.923Z,60.20
2018-07-17T21:15:47.203Z,60.70
2018-07-17T21:18:22.409Z,61.00
2018-07-17T21:20:57.560Z,61.60
2018-07-17T21:26:07.283Z,62.20
2018-07-17T21:28:42.159Z,62.70
2018-07-17T21:31:17.061Z,63.00
2018-07-17T21:33:52.329Z,63.60
2018-07-17T21:36:28.020Z,63.70
2018-07-17T21:39:03.462Z,64.10
2018-07-17T21:41:38.632Z,64.50
2018-07-17T21:44:13.723Z,64.80
2018-07-17T21:46:48.798Z,64.70
2018-07-17T21:49:23.786Z,64.90
2018-07-17T21:51:58.911Z,64.90
2018-07-17T21:54:33.889Z,64.70
2018-07-17T21:57:09.047Z,65.10
2018-07-17T21:59:43.945Z,65.40
2018-07-17T22:02:19.092Z,65.40
2018-07-17T22:04:54.476Z,65.50
2018-07-17T22:07:29.531Z,65.70
2018-07-17T22:10:04.979Z,66.00
2018-07-17T22:12:40.143Z,66.10
2018-07-17T22:15:15.369Z,66.30
2018-07-17T22:17:50.299Z,66.50
2018-07-17T22:20:25.560Z,67.00
2018-07-17T22:23:00.733Z,67.20
2018-07-17T22:25:35.860Z,67.30
2018-07-17T22:28:10.907Z,67.40
2018-07-17T22:30:45.810Z,67.40
2018-07-17T22:33:20.806Z,67.70
2018-07-17T22:35:56.113Z,67.80
2018-07-17T22:38:31.193Z,68.20
2018-07-17T22:41:06.662Z,68.30
2018-07-17T22:43:41.798Z,68.50
2018-07-17T22:46:17.178Z,68.40
2018-07-17T22:48:52.389Z,68.60
2018-07-17T22:51:27.144Z,68.90
2018-07-17T22:54:02.483Z,69.10
2018-07-17T22:56:37.586Z,69.40
2018-07-17T22:59:12.810Z,69.60
2018-07-17T23:01:48.379Z,70.00
2018-07-17T23:04:23.268Z,70.20
2018-07-17T23:06:58.337Z,70.30
2018-07-17T23:09:33.616Z,70.70
2018-07-17T23:12:08.822Z,70.70
2018-07-17T23:14:43.853Z,71.00
2018-07-17T23:17:18.716Z,71.10
2018-07-17T23:19:53.446Z,71.30
2018-07-17T23:22:40.440Z,71.30
2018-07-17T23:25:15.167Z,71.60
2018-07-17T23:27:50.364Z,71.60
2018-07-17T23:30:25.875Z,71.80
2018-07-17T23:33:01.114Z,72.00
2018-07-17T23:35:36.098Z,72.20
2018-07-17T23:38:11.230Z,72.30
2018-07-17T23:40:46.045Z,72.10
2018-07-17T23:43:21.698Z,72.40
2018-07-17T23:45:56.702Z,72.70
2018-07-17T23:48:31.671Z,72.70
2018-07-17T23:51:06.661Z,73.00
2018-07-17T23:53:41.423Z,73.30
2018-07-17T23:56:16.470Z,73.30
2018-07-17T23:58:51.345Z,73.80
